Date,TemperatureHighF,TemperatureAvgF,TemperatureLowF,DewpointHighF,DewpointAvgF,DewpointLowF,HumidityHigh,HumidityAvg,HumidityLow,PressureMaxIn,PressureMinIn,WindSpeedMaxMPH,WindSpeedAvgMPH,GustSpeedMaxMPH,PrecipitationSumIn
2013-10-1,76.0,67.1,52.4,56.6,46.8,35.1,72,51,23,29.94,29.62,23,4,23,0.00
2013-10-2,75.0,60.0,40.7,54.0,42.8,37.3,89,58,28,30.07,29.85,15,1,15,0.13
2013-10-3,60.4,57.7,54.5,58.5,55.4,52.8,95,92,87,29.93,29.78,20,2,20,0.51
2013-10-4,60.3,57.7,55.7,58.3,55.6,54.2,95,93,89,29.98,29.87,19,4,20,0.06
2013-10-5,63.1,58.8,50.4,62.1,57.2,48.5,97,94,87,29.92,29.66,21,2,22,0.93
2013-10-6,56.7,49.5,42.0,49.3,44.7,40.7,96,84,60,29.77,29.66,11,1,11,0.04
2013-10-7,66.0,52.2,42.9,49.6,43.8,39.1,96,76,38,30.01,29.77,15,2,16,0.01
2013-10-8,74.7,60.5,44.5,49.9,45.7,41.0,89,61,37,30.01,29.90,19,3,19,0.00
2013-10-9,74.0,64.2,55.5,54.2,50.4,46.2,77,62,47,30.07,29.95,17,2,17,0.00
2013-10-10,72.7,58.8,45.6,51.9,47.9,42.5,90,69,44,30.07,29.94,16,1,16,0.00
2013-10-11,75.1,64.4,52.8,58.4,53.3,48.3,88,69,51,29.94,29.72,27,5,27,0.00
2013-10-12,69.9,57.4,48.0,56.7,45.8,40.1,78,66,53,30.12,29.71,32,7,32,0.00
2013-10-13,61.1,48.7,39.2,42.4,38.4,34.3,93,71,39,30.41,30.12,15,1,15,0.00
2013-10-14,57.4,48.2,35.6,43.9,38.3,32.9,92,71,50,30.42,30.02,18,2,18,0.00
2013-10-15,56.2,50.3,47.4,53.3,47.9,43.3,95,92,74,30.03,29.67,18,3,19,0.71
2013-10-16,48.5,45.3,36.6,47.4,42.4,35.0,96,90,77,29.92,29.72,11,1,11,0.00
2013-10-17,53.9,43.5,33.4,44.8,39.2,32.1,96,85,62,29.90,29.77,10,1,10,0.01
2013-10-18,51.1,43.9,34.8,45.1,37.6,31.0,93,80,47,29.92,29.76,17,2,17,0.13
2013-10-19,46.7,40.6,35.2,39.8,35.8,31.9,94,83,70,29.85,29.69,15,2,17,0.02
2013-10-20,43.4,37.5,30.1,41.2,35.5,28.8,96,93,86,29.81,29.64,18,2,18,0.14
2013-10-21,37.7,35.8,33.5,34.9,27.0,20.7,90,71,53,29.93,29.81,25,7,25,0.00
2013-10-22,39.3,34.0,27.8,30.9,28.0,25.4,92,79,68,30.03,29.93,14,1,14,0.00
2013-10-23,39.1,33.4,27.2,32.4,28.4,24.7,93,82,65,30.07,29.99,15,2,15,0.00
2013-10-24,41.9,37.3,32.5,31.4,28.0,24.8,79,69,56,30.30,30.07,17,3,17,0.00
2013-10-25,54.7,44.4,35.0,40.1,33.1,27.6,84,66,52,30.31,29.74,28,5,32,0.00
2013-10-26,53.6,44.9,36.2,41.0,33.1,29.2,82,64,52,30.06,29.72,19,4,22,0.00
2013-10-27,60.4,43.8,30.2,35.8,31.5,26.9,89,65,37,30.12,29.80,19,4,19,0.00
2013-10-28,43.3,37.4,31.1,33.3,25.4,21.8,78,63,46,30.44,30.12,24,5,24,0.00
2013-10-29,42.5,36.9,30.3,37.0,30.0,22.2,87,76,68,30.44,30.12,12,2,12,0.00
2013-10-30,52.5,46.1,39.5,51.7,44.8,36.6,97,95,88,30.12,29.67,12,1,12,0.18
2013-10-31,52.6,47.6,40.4,51.8,46.4,38.8,97,95,92,29.67,29.33,20,4,20,0.03